Time;durP1;ratioP1;P1;durP2;ratioP2;P2;SDS_P1;SDS_P2;PMS_P1;PMS_P2;Temp;Humidity;BMP_temperature;BMP_pressure;BME280_temperature;BME280_humidity;BME280_pressure;Samples;Min_cycle;Max_cycle;Signal;HPM_P1;HPM_P2
2022/08/26 12:22:51;;;;;;;;;;;28.30;79.40;;;;;;5008202;28;19929;-82
2022/08/26 12:25:21;;;;;;;;;;;27.80;81.10;;;;;;4974506;28;19933;-83
2022/08/26 12:27:47;;;;;;;;;;;27.70;82.90;;;;;;5010131;28;20014;-84
2022/08/26 12:30:15;;;;;;;;;;;27.70;85.50;;;;;;5006945;28;20590;-84
2022/08/26 12:32:42;;;;;;;;;;;27.80;85.50;;;;;;4991031;28;19920;-85
2022/08/26 12:35:09;;;;;;;;;;;28.00;84.00;;;;;;5005937;28;19914;-85
2022/08/26 12:37:38;;;;;;;;;;;28.10;82.20;;;;;;5004137;28;19924;-84
2022/08/26 12:40:26;;;;;;;;;;;28.20;81.90;;;;;;5020734;28;20166;-84
2022/08/26 12:42:52;;;;;;;;;;;28.20;81.90;;;;;;5002798;28;19924;-84
2022/08/26 12:45:32;;;;;;;;;;;28.20;83.30;;;;;;5006711;28;19936;-84
2022/08/26 12:48:00;;;;;;;;;;;28.40;81.20;;;;;;4986638;28;20374;-86
2022/08/26 12:50:25;;;;;;;;;;;28.60;80.40;;;;;;4990295;28;19924;-84
2022/08/26 12:52:59;;;;;;;;;;;28.90;76.80;;;;;;5009026;28;19914;-83
2022/08/26 12:55:31;;;;;;;;;;;29.00;75.20;;;;;;4991104;28;19914;-85
2022/08/26 12:58:15;;;;;;;;;;;29.00;76.60;;;;;;4979770;28;19970;-84
2022/08/26 13:00:41;;;;;;;;;;;28.90;77.30;;;;;;5004581;28;19914;-85
2022/08/26 13:03:25;;;;;;;;;;;28.70;77.80;;;;;;4994177;28;19909;-85
2022/08/26 13:05:51;;;;;;;;;;;28.60;79.00;;;;;;4993021;28;19917;-85
2022/08/26 13:08:26;;;;;;;;;;;28.40;80.60;;;;;;4977048;28;19925;-85
2022/08/26 13:11:31;;;;;;;;;;;28.30;82.20;;;;;;4984223;28;20448;-85
2022/08/26 13:13:58;;;;;;;;;;;28.20;83.50;;;;;;4949544;28;19997;-84
2022/08/26 13:16:24;;;;;;;;;;;28.10;83.40;;;;;;4954655;28;19919;-84
2022/08/26 13:18:56;;;;;;;;;;;28.00;84.60;;;;;;4989036;28;19921;-84
2022/08/26 13:21:26;;;;;;;;;;;27.90;84.50;;;;;;5008975;28;19921;-84
2022/08/26 13:23:52;;;;;;;;;;;27.80;86.20;;;;;;5000476;28;19975;-86
2022/08/26 13:26:18;;;;;;;;;;;27.80;84.30;;;;;;5010084;28;19925;-84
2022/08/26 13:28:44;;;;;;;;;;;27.70;83.70;;;;;;5004137;28;19916;-84
2022/08/26 13:31:11;;;;;;;;;;;27.70;81.30;;;;;;5008191;28;20288;-84
2022/08/26 13:33:37;;;;;;;;;;;27.60;80.70;;;;;;4994514;28;19914;-84
2022/08/26 13:36:03;;;;;;;;;;;27.50;81.60;;;;;;4995907;28;20302;-85
2022/08/26 13:38:29;;;;;;;;;;;27.40;82.10;;;;;;4992626;28;20031;-84
2022/08/26 13:40:58;;;;;;;;;;;27.40;83.40;;;;;;5009256;28;20688;-84
2022/08/26 13:43:27;;;;;;;;;;;27.30;83.40;;;;;;4982018;28;19918;-85
2022/08/26 13:45:52;;;;;;;;;;;27.20;84.40;;;;;;4981863;28;19984;-84
2022/08/26 13:48:18;;;;;;;;;;;27.20;85.20;;;;;;4989172;28;19926;-83
2022/08/26 13:50:45;;;;;;;;;;;27.20;85.70;;;;;;4982062;28;19918;-84
2022/08/26 13:53:12;;;;;;;;;;;27.20;83.60;;;;;;5016664;28;19914;-84
2022/08/26 13:55:37;;;;;;;;;;;27.10;84.60;;;;;;5012388;28;19932;-84
2022/08/26 13:58:03;;;;;;;;;;;27.00;86.40;;;;;;4997497;28;20370;-84
2022/08/26 14:00:30;;;;;;;;;;;27.00;86.70;;;;;;5013380;28;20444;-85
2022/08/26 14:02:56;;;;;;;;;;;27.00;84.50;;;;;;4995010;28;19918;-85
2022/08/26 14:05:22;;;;;;;;;;;27.00;85.40;;;;;;4996717;28;19921;-85
2022/08/26 14:07:48;;;;;;;;;;;27.00;86.50;;;;;;5008584;28;19929;-84
2022/08/26 14:10:13;;;;;;;;;;;27.00;87.90;;;;;;4992142;28;19918;-85
2022/08/26 14:12:39;;;;;;;;;;;26.90;88.40;;;;;;4996991;28;19918;-85
2022/08/26 14:15:05;;;;;;;;;;;26.80;89.40;;;;;;4997995;28;20019;-85
2022/08/26 14:17:31;;;;;;;;;;;26.80;90.20;;;;;;5015173;28;19925;-85
2022/08/26 14:19:57;;;;;;;;;;;26.80;90.80;;;;;;4992049;28;19918;-85
2022/08/26 14:22:23;;;;;;;;;;;26.70;89.50;;;;;;4999492;28;19921;-84
2022/08/26 14:24:49;;;;;;;;;;;26.70;90.00;;;;;;4985591;28;19985;-84
2022/08/26 14:27:15;;;;;;;;;;;26.60;89.50;;;;;;5012064;28;20313;-84
2022/08/26 14:29:41;;;;;;;;;;;26.60;90.30;;;;;;5005284;28;19910;-84
2022/08/26 14:32:10;;;;;;;;;;;26.60;89.70;;;;;;5008294;28;20436;-84
2022/08/26 14:34:37;;;;;;;;;;;26.50;89.40;;;;;;4993274;28;19918;-85
2022/08/26 14:37:03;;;;;;;;;;;26.40;90.00;;;;;;5004997;28;19914;-83
2022/08/26 14:39:29;;;;;;;;;;;26.40;90.30;;;;;;5011513;28;19918;-86
2022/08/26 14:41:55;;;;;;;;;;;26.20;91.30;;;;;;5008753;28;19918;-83
2022/08/26 14:44:23;;;;;;;;;;;26.20;92.40;;;;;;4990651;28;19924;-84
2022/08/26 14:46:49;;;;;;;;;;;26.10;92.60;;;;;;5015382;28;19925;-85
2022/08/26 14:49:16;;;;;;;;;;;26.10;93.10;;;;;;4994841;28;20416;-85
2022/08/26 14:51:42;;;;;;;;;;;26.10;93.40;;;;;;5010977;28;19921;-82
2022/08/26 14:54:11;;;;;;;;;;;26.00;93.40;;;;;;4992186;28;19909;-85
2022/08/26 14:56:43;;;;;;;;;;;26.00;93.90;;;;;;5013730;28;19913;-84
2022/08/26 14:59:09;;;;;;;;;;;26.00;92.30;;;;;;5004011;28;19918;-83
2022/08/26 15:01:35;;;;;;;;;;;26.00;93.70;;;;;;5009034;28;19910;-85
2022/08/26 15:04:01;;;;;;;;;;;26.00;94.00;;;;;;5009557;28;19920;-86
2022/08/26 15:06:27;;;;;;;;;;;25.90;93.50;;;;;;5013639;28;19922;-82
2022/08/26 15:08:54;;;;;;;;;;;25.90;94.30;;;;;;5005075;28;20308;-84
2022/08/26 15:11:19;;;;;;;;;;;26.00;93.40;;;;;;4992242;28;19918;-84
2022/08/26 15:13:45;;;;;;;;;;;25.90;93.40;;;;;;5006418;28;19914;-82
2022/08/26 15:16:11;;;;;;;;;;;25.80;93.80;;;;;;5012663;28;19953;-85
2022/08/26 15:18:37;;;;;;;;;;;25.90;94.20;;;;;;4990865;28;19917;-84
2022/08/26 15:21:04;;;;;;;;;;;25.70;94.70;;;;;;4994153;28;19941;-84
2022/08/26 15:23:29;;;;;;;;;;;25.70;95.30;;;;;;5007762;28;19914;-85
2022/08/26 15:25:55;;;;;;;;;;;25.70;95.50;;;;;;4997524;28;19928;-86
2022/08/26 15:28:21;;;;;;;;;;;25.60;95.90;;;;;;4995059;28;19917;-83
2022/08/26 15:30:46;;;;;;;;;;;25.50;95.90;;;;;;5005240;28;19917;-83
2022/08/26 15:33:12;;;;;;;;;;;25.50;95.80;;;;;;4992149;28;20305;-84
2022/08/26 15:35:38;;;;;;;;;;;25.40;96.20;;;;;;4981715;28;19917;-85
2022/08/26 15:38:04;;;;;;;;;;;25.40;96.40;;;;;;4992161;28;19913;-86
2022/08/26 15:40:30;;;;;;;;;;;25.30;97.10;;;;;;5006574;28;19918;-85
2022/08/26 15:42:55;;;;;;;;;;;25.30;97.20;;;;;;4993847;28;19918;-85
2022/08/26 15:45:21;;;;;;;;;;;25.30;97.30;;;;;;4992337;28;19922;-85
2022/08/26 15:47:47;;;;;;;;;;;25.30;97.80;;;;;;4985701;28;20305;-83
2022/08/26 15:50:12;;;;;;;;;;;25.20;98.00;;;;;;4991123;28;20356;-83
2022/08/26 15:52:38;;;;;;;;;;;25.20;98.60;;;;;;4994287;28;19991;-83
2022/08/26 15:55:04;;;;;;;;;;;25.10;98.70;;;;;;5007650;28;19971;-83
2022/08/26 15:57:30;;;;;;;;;;;25.00;98.50;;;;;;4978331;28;20544;-84
2022/08/26 15:59:55;;;;;;;;;;;25.00;98.60;;;;;;4971650;28;19942;-84
2022/08/26 16:02:21;;;;;;;;;;;25.00;99.00;;;;;;5009977;28;19918;-83
2022/08/26 16:04:47;;;;;;;;;;;25.00;99.30;;;;;;4990236;28;19975;-85
2022/08/26 16:07:12;;;;;;;;;;;24.90;98.60;;;;;;4979628;28;19968;-82
2022/08/26 16:09:38;;;;;;;;;;;24.90;99.30;;;;;;4971084;28;19925;-82
2022/08/26 16:12:04;;;;;;;;;;;24.80;99.60;;;;;;4977520;28;19918;-83
2022/08/26 16:14:29;;;;;;;;;;;24.80;99.60;;;;;;4974706;28;19917;-84
2022/08/26 16:16:55;;;;;;;;;;;24.80;99.40;;;;;;4990942;28;19917;-83
2022/08/26 16:19:21;;;;;;;;;;;24.70;99.20;;;;;;4973709;28;19917;-83
2022/08/26 16:21:49;;;;;;;;;;;24.70;99.90;;;;;;5007622;28;19924;-84
2022/08/26 16:24:15;;;;;;;;;;;24.60;99.90;;;;;;5006892;28;19964;-84
2022/08/26 16:26:42;;;;;;;;;;;24.60;99.90;;;;;;5006305;28;19913;-83
2022/08/26 16:29:09;;;;;;;;;;;24.50;99.90;;;;;;5005157;28;19917;-84
2022/08/26 16:31:36;;;;;;;;;;;24.40;99.90;;;;;;4990698;28;19913;-83
2022/08/26 16:34:03;;;;;;;;;;;24.40;99.90;;;;;;4994984;28;19918;-84
2022/08/26 16:36:28;;;;;;;;;;;24.30;99.90;;;;;;5013139;28;20004;-83
2022/08/26 16:38:55;;;;;;;;;;;24.20;99.90;;;;;;4989137;28;19996;-85
2022/08/26 16:41:25;;;;;;;;;;;24.10;99.90;;;;;;4993476;28;19968;-85
2022/08/26 16:43:53;;;;;;;;;;;24.10;99.90;;;;;;4990743;28;19925;-85
2022/08/26 16:46:20;;;;;;;;;;;23.90;97.20;;;;;;4990206;28;19925;-85
2022/08/26 16:48:47;;;;;;;;;;;23.80;97.90;;;;;;5005248;28;19945;-84
2022/08/26 16:51:17;;;;;;;;;;;23.60;96.60;;;;;;4976533;28;19917;-83
2022/08/26 16:53:44;;;;;;;;;;;23.40;97.50;;;;;;5007201;28;19917;-86
2022/08/26 16:56:14;;;;;;;;;;;23.20;97.80;;;;;;4995550;28;20583;-85
2022/08/26 16:58:40;;;;;;;;;;;23.00;98.20;;;;;;4998007;28;19972;-84
2022/08/26 17:01:06;;;;;;;;;;;22.80;98.60;;;;;;5003584;28;19921;-83
2022/08/26 17:03:32;;;;;;;;;;;22.70;99.80;;;;;;4993363;28;19914;-86
2022/08/26 17:05:58;;;;;;;;;;;22.30;99.90;;;;;;5009128;28;19929;-85
2022/08/26 17:08:23;;;;;;;;;;;21.90;99.90;;;;;;4998721;28;20317;-87
2022/08/26 17:10:50;;;;;;;;;;;21.30;99.90;;;;;;4976860;28;19924;-87
2022/08/26 17:13:16;;;;;;;;;;;20.80;99.90;;;;;;5027606;28;19963;-87
2022/08/26 17:15:52;;;;;;;;;;;20.20;99.90;;;;;;5012730;28;19913;-88
2022/08/26 17:18:21;;;;;;;;;;;19.60;99.90;;;;;;5009214;28;20275;-86
2022/08/26 17:20:47;;;;;;;;;;;19.00;99.90;;;;;;4997891;28;19914;-87
2022/08/26 17:23:13;;;;;;;;;;;18.60;99.90;;;;;;4983482;28;19917;-86
2022/08/26 17:25:39;;;;;;;;;;;18.30;99.90;;;;;;5013945;28;19965;-86
2022/08/26 17:28:05;;;;;;;;;;;18.10;99.90;;;;;;5008166;28;19972;-87
2022/08/26 17:30:31;;;;;;;;;;;18.00;99.90;;;;;;5021521;28;19921;-91
2022/08/26 17:32:57;;;;;;;;;;;17.90;99.90;;;;;;4982626;28;19925;-90
2022/08/26 17:35:23;;;;;;;;;;;17.70;99.90;;;;;;4986818;28;20445;-90
2022/08/26 17:37:48;;;;;;;;;;;17.50;99.90;;;;;;5002063;28;20000;-91
2022/08/26 17:40:16;;;;;;;;;;;17.50;99.90;;;;;;5011761;28;19953;-92
2022/08/26 17:42:42;;;;;;;;;;;17.50;99.90;;;;;;5014112;28;19913;-88
2022/08/26 17:45:08;;;;;;;;;;;17.50;99.90;;;;;;5004539;28;19924;-89
2022/08/26 17:47:34;;;;;;;;;;;17.50;99.90;;;;;;5011550;28;20370;-89
2022/08/26 17:50:00;;;;;;;;;;;17.50;99.90;;;;;;4998791;28;19910;-89
2022/08/26 17:52:26;;;;;;;;;;;17.50;99.90;;;;;;4995160;28;19920;-89
2022/08/26 17:54:55;;;;;;;;;;;17.50;99.90;;;;;;5001261;28;20467;-92
2022/08/26 17:57:21;;;;;;;;;;;17.60;99.90;;;;;;4997896;28;19917;-90
2022/08/26 17:59:47;;;;;;;;;;;17.70;99.90;;;;;;5000101;28;19913;-88
2022/08/26 18:02:12;;;;;;;;;;;17.70;99.90;;;;;;5009043;28;20016;-87
2022/08/26 18:04:38;;;;;;;;;;;17.70;99.90;;;;;;4996488;28;19926;-91
2022/08/26 18:07:04;;;;;;;;;;;17.80;99.90;;;;;;4978005;28;19918;-90
2022/08/26 18:09:30;;;;;;;;;;;17.80;99.90;;;;;;4985479;28;19913;-89
2022/08/26 18:11:56;;;;;;;;;;;17.80;99.90;;;;;;4991641;28;19960;-88
2022/08/26 18:14:22;;;;;;;;;;;17.80;99.90;;;;;;5010606;28;19921;-89
2022/08/26 18:16:49;;;;;;;;;;;17.80;99.90;;;;;;5029105;28;19993;-90
2022/08/26 18:19:15;;;;;;;;;;;17.80;99.90;;;;;;5010586;28;19963;-89
2022/08/26 18:21:41;;;;;;;;;;;17.70;99.90;;;;;;4993488;28;20379;-89
2022/08/26 18:24:07;;;;;;;;;;;17.70;99.90;;;;;;4993990;28;19959;-91
2022/08/26 18:26:34;;;;;;;;;;;17.70;99.90;;;;;;4994515;28;19917;-87
2022/08/26 18:29:00;;;;;;;;;;;17.70;99.90;;;;;;5010392;28;19914;-88
2022/08/26 18:31:26;;;;;;;;;;;17.70;99.90;;;;;;5012864;28;19913;-89
2022/08/26 18:33:52;;;;;;;;;;;17.60;99.90;;;;;;4997427;28;19921;-88
2022/08/26 18:36:29;;;;;;;;;;;17.60;99.90;;;;;;4978181;28;19922;-89
2022/08/26 18:38:56;;;;;;;;;;;17.60;99.90;;;;;;5012292;28;19917;-90
2022/08/26 18:41:22;;;;;;;;;;;17.60;99.90;;;;;;4994455;28;19913;-89
2022/08/26 18:43:49;;;;;;;;;;;17.70;99.90;;;;;;5016101;28;19922;-91
2022/08/26 18:46:15;;;;;;;;;;;17.70;99.90;;;;;;4996423;28;19917;-89
2022/08/26 18:48:41;;;;;;;;;;;17.70;99.90;;;;;;4995496;28;19914;-91
2022/08/26 18:51:07;;;;;;;;;;;17.70;99.90;;;;;;5013712;28;19909;-91
2022/08/26 18:53:34;;;;;;;;;;;17.70;99.90;;;;;;4998221;28;20004;-92
2022/08/26 18:56:00;;;;;;;;;;;17.70;99.90;;;;;;5004779;28;19914;-89
2022/08/26 18:58:26;;;;;;;;;;;17.80;99.90;;;;;;5011753;28;19913;-88
2022/08/26 19:00:51;;;;;;;;;;;17.70;99.90;;;;;;5010357;28;20000;-87
2022/08/26 19:03:18;;;;;;;;;;;17.70;99.90;;;;;;4994386;28;19917;-87
2022/08/26 19:05:44;;;;;;;;;;;17.70;99.90;;;;;;5011275;28;19952;-88
2022/08/26 19:08:10;;;;;;;;;;;17.80;99.90;;;;;;4998253;28;20293;-90
2022/08/26 19:10:40;;;;;;;;;;;17.80;99.90;;;;;;5005730;28;19924;-89
2022/08/26 19:13:08;;;;;;;;;;;17.80;99.90;;;;;;5009717;28;19914;-87
2022/08/26 19:15:39;;;;;;;;;;;17.80;99.90;;;;;;4994071;28;20358;-88
2022/08/26 19:18:05;;;;;;;;;;;17.80;99.90;;;;;;5013099;28;19913;-88
2022/08/26 19:20:34;;;;;;;;;;;17.80;99.90;;;;;;5006637;28;20036;-92
2022/08/26 19:23:01;;;;;;;;;;;17.80;99.90;;;;;;4995768;28;20440;-87
2022/08/26 19:25:27;;;;;;;;;;;17.80;99.90;;;;;;4993171;28;20013;-87
2022/08/26 19:27:52;;;;;;;;;;;17.80;99.90;;;;;;5008380;28;19922;-90
2022/08/26 19:30:18;;;;;;;;;;;17.70;99.90;;;;;;4990245;28;20005;-86
2022/08/26 19:32:44;;;;;;;;;;;17.70;99.90;;;;;;5011486;28;20366;-89
2022/08/26 19:35:10;;;;;;;;;;;17.70;99.90;;;;;;4996405;28;19914;-88
2022/08/26 19:37:35;;;;;;;;;;;17.70;99.90;;;;;;4996264;28;20525;-89
2022/08/26 19:40:01;;;;;;;;;;;17.70;99.90;;;;;;4995350;28;19917;-88
2022/08/26 19:42:28;;;;;;;;;;;17.70;99.90;;;;;;5012703;28;19913;-88
2022/08/26 19:45:06;;;;;;;;;;;17.80;99.90;;;;;;4996411;28;19917;-89
2022/08/26 19:47:32;;;;;;;;;;;17.80;99.90;;;;;;4996734;28;19920;-91
2022/08/26 19:49:58;;;;;;;;;;;17.80;99.90;;;;;;4995691;28;20016;-88
2022/08/26 19:52:24;;;;;;;;;;;17.70;99.90;;;;;;4996291;28;19921;-88
2022/08/26 19:54:50;;;;;;;;;;;17.70;99.90;;;;;;4996386;28;19913;-89
2022/08/26 19:57:15;;;;;;;;;;;17.70;99.90;;;;;;4996278;28;19914;-88
2022/08/26 19:59:41;;;;;;;;;;;17.70;99.90;;;;;;4979019;28;19942;-87
2022/08/26 20:02:07;;;;;;;;;;;17.70;99.90;;;;;;4993472;28;20039;-87
2022/08/26 20:04:33;;;;;;;;;;;17.70;99.90;;;;;;5010174;28;19995;-88
2022/08/26 20:06:59;;;;;;;;;;;17.80;99.90;;;;;;4999873;28;19917;-89
2022/08/26 20:09:25;;;;;;;;;;;17.80;99.90;;;;;;4994984;28;19917;-87
2022/08/26 20:11:50;;;;;;;;;;;17.80;99.90;;;;;;4994933;28;19913;-90
2022/08/26 20:14:17;;;;;;;;;;;17.80;99.90;;;;;;4996140;28;20631;-87
2022/08/26 20:16:48;;;;;;;;;;;17.80;99.90;;;;;;5008803;28;19914;-88
2022/08/26 20:26:07;;;;;;;;;;;17.90;99.90;;;;;;5030410;28;19932;-79
2022/08/26 20:28:33;;;;;;;;;;;17.80;99.90;;;;;;5032164;28;19917;-79
2022/08/26 20:30:58;;;;;;;;;;;17.80;99.90;;;;;;5011418;28;20409;-79
2022/08/26 20:33:24;;;;;;;;;;;17.80;99.90;;;;;;5016220;28;19914;-79
2022/08/26 20:35:50;;;;;;;;;;;17.80;99.90;;;;;;5024724;28;20397;-78
2022/08/26 20:38:15;;;;;;;;;;;17.80;99.90;;;;;;5019335;28;19949;-79
2022/08/26 20:40:41;;;;;;;;;;;17.80;99.90;;;;;;5007212;28;20008;-78
2022/08/26 20:43:07;;;;;;;;;;;17.80;99.90;;;;;;5014533;28;19961;-78
2022/08/26 20:45:33;;;;;;;;;;;17.80;99.90;;;;;;5014193;28;19928;-78
2022/08/26 20:47:59;;;;;;;;;;;17.80;99.90;;;;;;5008361;28;19918;-78
2022/08/26 20:50:25;;;;;;;;;;;17.80;99.90;;;;;;5028628;28;19914;-79
2022/08/26 20:52:52;;;;;;;;;;;17.80;99.90;;;;;;5014341;28;19984;-79
2022/08/26 20:55:18;;;;;;;;;;;17.80;99.90;;;;;;5018702;28;19936;-79
2022/08/26 20:57:43;;;;;;;;;;;17.80;99.90;;;;;;5015299;28;20338;-79
2022/08/26 21:00:11;;;;;;;;;;;17.80;99.90;;;;;;5012412;28;19997;-78
2022/08/26 21:02:37;;;;;;;;;;;17.80;99.90;;;;;;5005835;28;19925;-78
2022/08/26 21:05:03;;;;;;;;;;;17.70;99.90;;;;;;5013436;28;19921;-79
2022/08/26 21:07:29;;;;;;;;;;;17.80;99.90;;;;;;5002512;28;19918;-78
2022/08/26 21:09:55;;;;;;;;;;;17.70;99.90;;;;;;5013444;28;19923;-78
2022/08/26 21:12:20;;;;;;;;;;;17.70;99.90;;;;;;5012006;28;19956;-78
2022/08/26 21:14:46;;;;;;;;;;;17.80;99.90;;;;;;4991141;28;19913;-77
2022/08/26 21:17:12;;;;;;;;;;;17.70;99.90;;;;;;5005499;28;19980;-78
2022/08/26 21:19:37;;;;;;;;;;;17.70;99.90;;;;;;5009899;28;20447;-77
2022/08/26 21:22:04;;;;;;;;;;;17.70;99.90;;;;;;5004668;28;19931;-78
2022/08/26 21:24:30;;;;;;;;;;;17.70;99.90;;;;;;5019959;28;19925;-78
2022/08/26 21:26:55;;;;;;;;;;;17.70;99.90;;;;;;4999764;28;19914;-77
2022/08/26 21:29:21;;;;;;;;;;;17.70;99.90;;;;;;5003555;28;20035;-78
2022/08/26 21:31:47;;;;;;;;;;;17.70;99.90;;;;;;5015646;28;19923;-79
2022/08/26 21:34:16;;;;;;;;;;;17.70;99.90;;;;;;5026246;28;19910;-79
2022/08/26 21:36:42;;;;;;;;;;;17.70;99.90;;;;;;5023211;28;19922;-79
2022/08/26 21:39:09;;;;;;;;;;;17.60;99.90;;;;;;4997347;28;20077;-78
2022/08/26 21:41:34;;;;;;;;;;;17.70;99.90;;;;;;5010604;28;19977;-79
2022/08/26 21:44:00;;;;;;;;;;;17.60;99.90;;;;;;5010916;28;20397;-78
2022/08/26 21:46:27;;;;;;;;;;;17.60;99.90;;;;;;5016733;28;19922;-78
2022/08/26 21:48:57;;;;;;;;;;;17.60;99.90;;;;;;5018452;28;19925;-79
2022/08/26 21:51:24;;;;;;;;;;;17.70;99.90;;;;;;5012752;28;20008;-79
2022/08/26 21:53:51;;;;;;;;;;;17.60;99.90;;;;;;5015863;28;19928;-81
2022/08/26 21:56:17;;;;;;;;;;;17.50;99.90;;;;;;5011539;28;19940;-80
2022/08/26 21:58:44;;;;;;;;;;;17.50;99.90;;;;;;5014983;28;19917;-80
2022/08/26 22:01:10;;;;;;;;;;;17.50;99.90;;;;;;5013742;28;19921;-80
2022/08/26 22:03:36;;;;;;;;;;;17.50;99.90;;;;;;5006630;28;20542;-79
2022/08/26 22:06:02;;;;;;;;;;;17.50;99.90;;;;;;5016715;28;19924;-80
2022/08/26 22:08:29;;;;;;;;;;;17.50;99.90;;;;;;5000733;28;20345;-79
2022/08/26 22:10:55;;;;;;;;;;;17.50;99.90;;;;;;5020243;28;19949;-79
2022/08/26 22:13:28;;;;;;;;;;;17.50;99.90;;;;;;5010956;28;19921;-79
2022/08/26 22:15:56;;;;;;;;;;;17.50;99.90;;;;;;5008364;28;19913;-78
2022/08/26 22:18:23;;;;;;;;;;;17.50;99.90;;;;;;5007618;28;19925;-78
2022/08/26 22:20:49;;;;;;;;;;;17.50;99.90;;;;;;5011118;28;19913;-79
2022/08/26 22:23:14;;;;;;;;;;;17.50;99.90;;;;;;5012477;28;19983;-79
2022/08/26 22:25:40;;;;;;;;;;;17.50;99.90;;;;;;5016582;28;19917;-79
2022/08/26 22:28:06;;;;;;;;;;;17.50;99.90;;;;;;4984495;28;19914;-78
2022/08/26 22:30:33;;;;;;;;;;;17.50;99.90;;;;;;5013075;28;20024;-78
2022/08/26 22:33:00;;;;;;;;;;;17.50;99.90;;;;;;5009551;28;19917;-79
2022/08/26 22:35:26;;;;;;;;;;;17.50;99.90;;;;;;5009948;28;19936;-79
2022/08/26 22:37:51;;;;;;;;;;;17.50;99.90;;;;;;4998997;28;19918;-79
2022/08/26 22:40:17;;;;;;;;;;;17.50;99.90;;;;;;4996604;28;19936;-79
2022/08/26 22:42:43;;;;;;;;;;;17.50;99.90;;;;;;5001629;28;19944;-80
2022/08/26 22:45:10;;;;;;;;;;;17.50;99.90;;;;;;5009765;28;19972;-80
2022/08/26 22:47:36;;;;;;;;;;;17.50;99.90;;;;;;5011238;28;19917;-79
2022/08/26 22:50:02;;;;;;;;;;;17.60;99.90;;;;;;5014192;28;19940;-79
2022/08/26 22:52:28;;;;;;;;;;;17.50;99.90;;;;;;5014566;28;19953;-80
2022/08/26 22:54:53;;;;;;;;;;;17.50;99.90;;;;;;5003048;28;19964;-80
2022/08/26 22:57:19;;;;;;;;;;;17.50;99.90;;;;;;4987348;28;20315;-79
2022/08/26 22:59:45;;;;;;;;;;;17.50;99.90;;;;;;5022187;28;19917;-80
2022/08/26 23:02:11;;;;;;;;;;;17.50;99.90;;;;;;5002543;28;19924;-79
2022/08/26 23:04:37;;;;;;;;;;;17.50;99.90;;;;;;5004251;28;19917;-78
2022/08/26 23:07:03;;;;;;;;;;;17.50;99.90;;;;;;5007474;28;20500;-79
2022/08/26 23:09:29;;;;;;;;;;;17.50;99.90;;;;;;5012451;28;19965;-78
2022/08/26 23:11:55;;;;;;;;;;;17.40;99.90;;;;;;5010460;28;20596;-78
2022/08/26 23:14:21;;;;;;;;;;;17.40;99.90;;;;;;5009172;28;19914;-79
2022/08/26 23:16:47;;;;;;;;;;;17.40;99.90;;;;;;5004186;28;20032;-79
2022/08/26 23:19:14;;;;;;;;;;;17.50;99.90;;;;;;5006961;28;19953;-79
2022/08/26 23:21:39;;;;;;;;;;;17.50;99.90;;;;;;4999733;28;19925;-79
2022/08/26 23:24:06;;;;;;;;;;;17.50;99.90;;;;;;4997711;28;19929;-79
2022/08/26 23:26:31;;;;;;;;;;;17.50;99.90;;;;;;5013539;28;19918;-80
2022/08/26 23:28:57;;;;;;;;;;;17.40;99.90;;;;;;5014124;28;19945;-80
2022/08/26 23:31:23;;;;;;;;;;;17.50;99.90;;;;;;5003984;28;19917;-78
2022/08/26 23:36:33;;;;;;;;;;;17.50;99.90;;;;;;5008168;28;20282;-79
2022/08/26 23:38:58;;;;;;;;;;;17.50;99.90;;;;;;5008122;28;19917;-79
2022/08/26 23:41:24;;;;;;;;;;;17.50;99.90;;;;;;5002336;28;19913;-79
2022/08/26 23:43:50;;;;;;;;;;;17.50;99.90;;;;;;5012342;28;19913;-78
2022/08/26 23:46:16;;;;;;;;;;;17.50;99.90;;;;;;5003864;28;19918;-79
2022/08/26 23:48:42;;;;;;;;;;;17.50;99.90;;;;;;5005921;28;19921;-79
2022/08/26 23:53:52;;;;;;;;;;;17.50;99.90;;;;;;5020364;28;19971;-79
2022/08/26 23:56:17;;;;;;;;;;;17.50;99.90;;;;;;5011507;28;20267;-79
2022/08/26 23:58:43;;;;;;;;;;;17.50;99.90;;;;;;5000322;28;19964;-79
